sensor_id;sensor_type;location;lat;lon;timestamp;P1;durP1;ratioP1;P2;durP2;ratioP2
67640;SDS011;54434;50.096;20.082;2023-03-19T00:00:07;74.60;;;31.70;;
67640;SDS011;54434;50.096;20.082;2023-03-19T00:03:05;74.30;;;31.50;;
67640;SDS011;54434;50.096;20.082;2023-03-19T00:05:42;73.50;;;30.20;;
67640;SDS011;54434;50.096;20.082;2023-03-19T00:08:26;72.60;;;32.40;;
67640;SDS011;54434;50.096;20.082;2023-03-19T00:11:07;71.10;;;30.00;;
67640;SDS011;54434;50.096;20.082;2023-03-19T00:13:45;71.80;;;31.10;;
67640;SDS011;54434;50.096;20.082;2023-03-19T00:16:21;70.60;;;32.10;;
67640;SDS011;54434;50.096;20.082;2023-03-19T00:18:58;71.70;;;31.60;;
67640;SDS011;54434;50.096;20.082;2023-03-19T00:21:34;77.50;;;31.60;;
67640;SDS011;54434;50.096;20.082;2023-03-19T00:24:11;68.20;;;30.90;;
67640;SDS011;54434;50.096;20.082;2023-03-19T00:26:49;78.80;;;32.50;;
67640;SDS011;54434;50.096;20.082;2023-03-19T00:29:26;65.50;;;30.60;;
67640;SDS011;54434;50.096;20.082;2023-03-19T00:32:03;74.50;;;31.80;;
67640;SDS011;54434;50.096;20.082;2023-03-19T00:34:40;67.30;;;30.70;;
67640;SDS011;54434;50.096;20.082;2023-03-19T00:37:18;69.40;;;30.40;;
67640;SDS011;54434;50.096;20.082;2023-03-19T00:39:54;68.30;;;30.80;;
67640;SDS011;54434;50.096;20.082;2023-03-19T00:42:32;66.80;;;29.30;;
67640;SDS011;54434;50.096;20.082;2023-03-19T00:45:11;70.60;;;30.80;;
67640;SDS011;54434;50.096;20.082;2023-03-19T00:47:48;69.90;;;30.80;;
67640;SDS011;54434;50.096;20.082;2023-03-19T00:50:25;80.60;;;31.60;;
67640;SDS011;54434;50.096;20.082;2023-03-19T00:53:02;67.30;;;31.00;;
67640;SDS011;54434;50.096;20.082;2023-03-19T00:55:38;68.80;;;31.40;;
67640;SDS011;54434;50.096;20.082;2023-03-19T00:58:15;67.30;;;30.20;;
67640;SDS011;54434;50.096;20.082;2023-03-19T01:00:54;66.50;;;29.90;;
67640;SDS011;54434;50.096;20.082;2023-03-19T01:03:30;72.70;;;31.20;;
67640;SDS011;54434;50.096;20.082;2023-03-19T01:06:10;78.50;;;32.50;;
67640;SDS011;54434;50.096;20.082;2023-03-19T01:08:46;81.60;;;33.70;;
67640;SDS011;54434;50.096;20.082;2023-03-19T01:11:23;85.70;;;35.20;;
67640;SDS011;54434;50.096;20.082;2023-03-19T01:14:00;80.70;;;34.00;;
67640;SDS011;54434;50.096;20.082;2023-03-19T01:16:37;81.90;;;34.30;;
67640;SDS011;54434;50.096;20.082;2023-03-19T01:19:13;82.20;;;33.70;;
67640;SDS011;54434;50.096;20.082;2023-03-19T01:21:49;89.70;;;35.00;;
67640;SDS011;54434;50.096;20.082;2023-03-19T01:24:31;97.80;;;37.20;;
67640;SDS011;54434;50.096;20.082;2023-03-19T01:27:08;93.90;;;38.00;;
67640;SDS011;54434;50.096;20.082;2023-03-19T01:29:45;90.50;;;38.80;;
67640;SDS011;54434;50.096;20.082;2023-03-19T01:32:30;88.20;;;38.10;;
67640;SDS011;54434;50.096;20.082;2023-03-19T01:35:20;94.50;;;37.50;;
67640;SDS011;54434;50.096;20.082;2023-03-19T01:37:57;89.30;;;37.00;;
67640;SDS011;54434;50.096;20.082;2023-03-19T01:40:35;94.30;;;37.70;;
67640;SDS011;54434;50.096;20.082;2023-03-19T01:43:19;89.70;;;36.00;;
67640;SDS011;54434;50.096;20.082;2023-03-19T01:46:06;90.30;;;38.20;;
67640;SDS011;54434;50.096;20.082;2023-03-19T01:49:02;91.00;;;35.90;;
67640;SDS011;54434;50.096;20.082;2023-03-19T01:55:01;84.40;;;33.50;;
67640;SDS011;54434;50.096;20.082;2023-03-19T01:58:29;83.90;;;33.30;;
67640;SDS011;54434;50.096;20.082;2023-03-19T02:01:14;83.50;;;35.80;;
67640;SDS011;54434;50.096;20.082;2023-03-19T02:03:54;95.70;;;36.70;;
67640;SDS011;54434;50.096;20.082;2023-03-19T02:06:36;89.80;;;35.20;;
67640;SDS011;54434;50.096;20.082;2023-03-19T02:09:14;73.90;;;33.10;;
67640;SDS011;54434;50.096;20.082;2023-03-19T02:11:53;85.60;;;34.40;;
67640;SDS011;54434;50.096;20.082;2023-03-19T02:14:30;77.90;;;34.30;;
67640;SDS011;54434;50.096;20.082;2023-03-19T02:17:08;79.60;;;35.20;;
67640;SDS011;54434;50.096;20.082;2023-03-19T02:19:51;74.10;;;34.50;;
67640;SDS011;54434;50.096;20.082;2023-03-19T02:22:32;77.70;;;32.70;;
67640;SDS011;54434;50.096;20.082;2023-03-19T02:25:14;78.40;;;34.10;;
67640;SDS011;54434;50.096;20.082;2023-03-19T02:27:58;83.60;;;34.70;;
67640;SDS011;54434;50.096;20.082;2023-03-19T02:30:36;76.80;;;34.00;;
67640;SDS011;54434;50.096;20.082;2023-03-19T02:33:17;78.00;;;34.30;;
67640;SDS011;54434;50.096;20.082;2023-03-19T02:35:54;77.20;;;32.50;;
67640;SDS011;54434;50.096;20.082;2023-03-19T02:38:34;73.20;;;34.60;;
67640;SDS011;54434;50.096;20.082;2023-03-19T02:41:12;81.20;;;33.90;;
67640;SDS011;54434;50.096;20.082;2023-03-19T02:43:50;85.20;;;34.40;;
67640;SDS011;54434;50.096;20.082;2023-03-19T02:46:27;87.10;;;35.00;;
67640;SDS011;54434;50.096;20.082;2023-03-19T02:49:04;81.70;;;34.40;;
67640;SDS011;54434;50.096;20.082;2023-03-19T02:51:40;85.00;;;34.80;;
67640;SDS011;54434;50.096;20.082;2023-03-19T02:54:16;84.70;;;35.20;;
67640;SDS011;54434;50.096;20.082;2023-03-19T02:56:53;88.40;;;35.70;;
67640;SDS011;54434;50.096;20.082;2023-03-19T02:59:29;80.30;;;33.80;;
67640;SDS011;54434;50.096;20.082;2023-03-19T03:02:06;87.70;;;36.20;;
67640;SDS011;54434;50.096;20.082;2023-03-19T03:04:43;81.20;;;32.90;;
67640;SDS011;54434;50.096;20.082;2023-03-19T03:07:20;88.00;;;34.70;;
67640;SDS011;54434;50.096;20.082;2023-03-19T03:09:56;83.40;;;33.50;;
67640;SDS011;54434;50.096;20.082;2023-03-19T03:12:32;83.50;;;36.00;;
67640;SDS011;54434;50.096;20.082;2023-03-19T03:15:10;83.70;;;34.10;;
67640;SDS011;54434;50.096;20.082;2023-03-19T03:17:47;94.40;;;36.20;;
67640;SDS011;54434;50.096;20.082;2023-03-19T03:20:23;96.30;;;36.70;;
67640;SDS011;54434;50.096;20.082;2023-03-19T03:23:00;87.50;;;34.40;;
67640;SDS011;54434;50.096;20.082;2023-03-19T03:25:37;91.70;;;36.80;;
67640;SDS011;54434;50.096;20.082;2023-03-19T03:28:13;95.10;;;37.30;;
67640;SDS011;54434;50.096;20.082;2023-03-19T03:30:50;107.30;;;38.40;;
67640;SDS011;54434;50.096;20.082;2023-03-19T03:33:32;97.40;;;36.60;;
67640;SDS011;54434;50.096;20.082;2023-03-19T03:36:09;93.40;;;36.70;;
67640;SDS011;54434;50.096;20.082;2023-03-19T03:38:46;125.00;;;40.60;;
67640;SDS011;54434;50.096;20.082;2023-03-19T03:41:24;110.40;;;38.50;;
67640;SDS011;54434;50.096;20.082;2023-03-19T03:44:00;111.50;;;38.20;;
67640;SDS011;54434;50.096;20.082;2023-03-19T03:46:39;104.40;;;38.90;;
67640;SDS011;54434;50.096;20.082;2023-03-19T03:49:16;103.50;;;39.30;;
67640;SDS011;54434;50.096;20.082;2023-03-19T03:51:52;109.70;;;40.10;;
67640;SDS011;54434;50.096;20.082;2023-03-19T03:54:29;102.80;;;38.00;;
67640;SDS011;54434;50.096;20.082;2023-03-19T03:57:06;104.10;;;38.20;;
67640;SDS011;54434;50.096;20.082;2023-03-19T03:59:43;94.70;;;37.40;;
67640;SDS011;54434;50.096;20.082;2023-03-19T04:02:20;95.60;;;35.30;;
67640;SDS011;54434;50.096;20.082;2023-03-19T04:04:57;92.50;;;36.50;;
67640;SDS011;54434;50.096;20.082;2023-03-19T04:07:34;91.40;;;35.30;;
67640;SDS011;54434;50.096;20.082;2023-03-19T04:10:13;89.50;;;34.80;;
67640;SDS011;54434;50.096;20.082;2023-03-19T04:12:51;83.80;;;34.90;;
67640;SDS011;54434;50.096;20.082;2023-03-19T04:15:28;81.10;;;34.10;;
67640;SDS011;54434;50.096;20.082;2023-03-19T04:18:05;80.00;;;33.40;;
67640;SDS011;54434;50.096;20.082;2023-03-19T04:20:42;76.30;;;33.30;;
67640;SDS011;54434;50.096;20.082;2023-03-19T04:23:18;73.90;;;33.40;;
67640;SDS011;54434;50.096;20.082;2023-03-19T04:25:58;82.70;;;34.20;;
67640;SDS011;54434;50.096;20.082;2023-03-19T04:28:35;82.80;;;32.30;;
67640;SDS011;54434;50.096;20.082;2023-03-19T04:31:12;78.80;;;34.30;;
67640;SDS011;54434;50.096;20.082;2023-03-19T04:33:49;76.80;;;34.20;;
67640;SDS011;54434;50.096;20.082;2023-03-19T04:36:26;75.60;;;34.60;;
67640;SDS011;54434;50.096;20.082;2023-03-19T04:39:03;78.00;;;35.30;;
67640;SDS011;54434;50.096;20.082;2023-03-19T04:41:40;80.50;;;33.40;;
67640;SDS011;54434;50.096;20.082;2023-03-19T04:44:39;78.60;;;32.50;;
67640;SDS011;54434;50.096;20.082;2023-03-19T04:47:16;80.30;;;32.30;;
67640;SDS011;54434;50.096;20.082;2023-03-19T04:50:01;71.80;;;31.10;;
67640;SDS011;54434;50.096;20.082;2023-03-19T04:52:40;80.80;;;33.40;;
67640;SDS011;54434;50.096;20.082;2023-03-19T04:55:18;73.80;;;32.50;;
67640;SDS011;54434;50.096;20.082;2023-03-19T04:58:13;80.10;;;32.70;;
67640;SDS011;54434;50.096;20.082;2023-03-19T05:00:54;79.90;;;34.00;;
67640;SDS011;54434;50.096;20.082;2023-03-19T05:03:44;75.90;;;32.10;;
67640;SDS011;54434;50.096;20.082;2023-03-19T05:06:21;76.10;;;31.70;;
67640;SDS011;54434;50.096;20.082;2023-03-19T05:09:00;78.60;;;32.80;;
67640;SDS011;54434;50.096;20.082;2023-03-19T05:11:37;66.60;;;31.70;;
67640;SDS011;54434;50.096;20.082;2023-03-19T05:14:20;78.90;;;33.00;;
67640;SDS011;54434;50.096;20.082;2023-03-19T05:17:05;82.10;;;34.20;;
67640;SDS011;54434;50.096;20.082;2023-03-19T05:19:55;68.00;;;31.10;;
67640;SDS011;54434;50.096;20.082;2023-03-19T05:22:33;69.60;;;32.10;;
67640;SDS011;54434;50.096;20.082;2023-03-19T05:25:11;72.60;;;32.00;;
67640;SDS011;54434;50.096;20.082;2023-03-19T05:27:47;73.90;;;32.10;;
67640;SDS011;54434;50.096;20.082;2023-03-19T05:30:28;75.50;;;32.40;;
67640;SDS011;54434;50.096;20.082;2023-03-19T05:33:06;74.00;;;33.00;;
67640;SDS011;54434;50.096;20.082;2023-03-19T05:35:45;73.30;;;32.90;;
67640;SDS011;54434;50.096;20.082;2023-03-19T05:38:51;73.80;;;33.50;;
67640;SDS011;54434;50.096;20.082;2023-03-19T05:41:31;82.50;;;36.60;;
67640;SDS011;54434;50.096;20.082;2023-03-19T05:44:10;76.10;;;35.10;;
67640;SDS011;54434;50.096;20.082;2023-03-19T05:47:29;62.80;;;32.30;;
67640;SDS011;54434;50.096;20.082;2023-03-19T05:50:09;58.00;;;29.60;;
67640;SDS011;54434;50.096;20.082;2023-03-19T05:52:48;66.10;;;32.50;;
67640;SDS011;54434;50.096;20.082;2023-03-19T05:55:25;74.50;;;35.00;;
67640;SDS011;54434;50.096;20.082;2023-03-19T05:58:09;56.90;;;29.60;;
67640;SDS011;54434;50.096;20.082;2023-03-19T06:00:46;57.30;;;30.70;;
67640;SDS011;54434;50.096;20.082;2023-03-19T06:03:23;64.30;;;30.70;;
67640;SDS011;54434;50.096;20.082;2023-03-19T06:06:02;57.50;;;30.50;;
67640;SDS011;54434;50.096;20.082;2023-03-19T06:08:46;64.40;;;30.30;;
67640;SDS011;54434;50.096;20.082;2023-03-19T06:14:23;59.30;;;29.70;;
67640;SDS011;54434;50.096;20.082;2023-03-19T06:17:32;61.70;;;30.60;;
67640;SDS011;54434;50.096;20.082;2023-03-19T06:20:14;61.30;;;32.10;;
67640;SDS011;54434;50.096;20.082;2023-03-19T06:22:51;61.00;;;32.60;;
67640;SDS011;54434;50.096;20.082;2023-03-19T06:25:28;62.90;;;33.20;;
67640;SDS011;54434;50.096;20.082;2023-03-19T06:28:05;55.00;;;30.00;;
67640;SDS011;54434;50.096;20.082;2023-03-19T06:30:44;55.50;;;29.20;;
67640;SDS011;54434;50.096;20.082;2023-03-19T06:33:40;52.20;;;29.00;;
67640;SDS011;54434;50.096;20.082;2023-03-19T06:36:17;56.10;;;29.40;;
67640;SDS011;54434;50.096;20.082;2023-03-19T06:38:56;55.60;;;28.30;;
67640;SDS011;54434;50.096;20.082;2023-03-19T06:41:33;53.30;;;26.70;;
67640;SDS011;54434;50.096;20.082;2023-03-19T06:44:19;46.00;;;26.50;;
67640;SDS011;54434;50.096;20.082;2023-03-19T06:46:57;47.10;;;27.00;;
67640;SDS011;54434;50.096;20.082;2023-03-19T06:49:33;52.50;;;27.30;;
67640;SDS011;54434;50.096;20.082;2023-03-19T06:52:11;47.10;;;26.90;;
67640;SDS011;54434;50.096;20.082;2023-03-19T06:54:48;46.80;;;26.20;;
67640;SDS011;54434;50.096;20.082;2023-03-19T06:57:24;51.70;;;26.80;;
67640;SDS011;54434;50.096;20.082;2023-03-19T07:00:01;46.50;;;25.40;;
67640;SDS011;54434;50.096;20.082;2023-03-19T07:02:39;43.50;;;26.00;;
67640;SDS011;54434;50.096;20.082;2023-03-19T07:05:16;44.40;;;26.10;;
67640;SDS011;54434;50.096;20.082;2023-03-19T07:07:53;46.00;;;27.00;;
67640;SDS011;54434;50.096;20.082;2023-03-19T07:10:30;42.10;;;26.30;;
67640;SDS011;54434;50.096;20.082;2023-03-19T07:13:08;46.90;;;27.40;;
67640;SDS011;54434;50.096;20.082;2023-03-19T07:15:44;45.40;;;25.80;;
67640;SDS011;54434;50.096;20.082;2023-03-19T07:18:22;49.30;;;27.00;;
67640;SDS011;54434;50.096;20.082;2023-03-19T07:20:59;39.20;;;21.90;;
67640;SDS011;54434;50.096;20.082;2023-03-19T07:23:36;46.40;;;28.50;;
67640;SDS011;54434;50.096;20.082;2023-03-19T07:26:14;47.20;;;27.40;;
67640;SDS011;54434;50.096;20.082;2023-03-19T07:28:51;47.90;;;28.20;;
67640;SDS011;54434;50.096;20.082;2023-03-19T07:31:27;45.60;;;26.70;;
67640;SDS011;54434;50.096;20.082;2023-03-19T07:34:04;42.50;;;26.00;;
67640;SDS011;54434;50.096;20.082;2023-03-19T07:36:41;44.80;;;27.60;;
67640;SDS011;54434;50.096;20.082;2023-03-19T07:39:18;44.30;;;25.80;;
67640;SDS011;54434;50.096;20.082;2023-03-19T07:41:55;46.70;;;25.70;;
67640;SDS011;54434;50.096;20.082;2023-03-19T07:44:32;42.50;;;26.10;;
67640;SDS011;54434;50.096;20.082;2023-03-19T07:47:09;46.40;;;26.30;;
67640;SDS011;54434;50.096;20.082;2023-03-19T07:52:36;42.10;;;24.20;;
67640;SDS011;54434;50.096;20.082;2023-03-19T07:55:18;43.60;;;25.10;;
67640;SDS011;54434;50.096;20.082;2023-03-19T07:57:58;50.20;;;25.70;;
67640;SDS011;54434;50.096;20.082;2023-03-19T08:00:35;49.20;;;25.60;;
67640;SDS011;54434;50.096;20.082;2023-03-19T08:03:26;44.70;;;25.60;;
67640;SDS011;54434;50.096;20.082;2023-03-19T08:06:05;43.50;;;24.50;;
67640;SDS011;54434;50.096;20.082;2023-03-19T08:08:42;47.00;;;25.70;;
67640;SDS011;54434;50.096;20.082;2023-03-19T08:11:19;50.80;;;29.30;;
67640;SDS011;54434;50.096;20.082;2023-03-19T08:13:57;46.30;;;26.10;;
67640;SDS011;54434;50.096;20.082;2023-03-19T08:16:34;37.50;;;22.90;;
67640;SDS011;54434;50.096;20.082;2023-03-19T08:19:12;43.00;;;23.80;;
67640;SDS011;54434;50.096;20.082;2023-03-19T08:22:06;49.70;;;27.00;;
67640;SDS011;54434;50.096;20.082;2023-03-19T08:24:43;47.70;;;25.20;;
67640;SDS011;54434;50.096;20.082;2023-03-19T08:27:19;42.20;;;23.60;;
67640;SDS011;54434;50.096;20.082;2023-03-19T08:29:56;46.30;;;25.30;;
67640;SDS011;54434;50.096;20.082;2023-03-19T08:32:33;54.50;;;30.50;;
67640;SDS011;54434;50.096;20.082;2023-03-19T08:35:15;38.30;;;20.40;;
67640;SDS011;54434;50.096;20.082;2023-03-19T08:37:53;33.30;;;18.70;;
67640;SDS011;54434;50.096;20.082;2023-03-19T08:40:32;39.00;;;20.40;;
67640;SDS011;54434;50.096;20.082;2023-03-19T08:43:10;35.10;;;19.70;;
67640;SDS011;54434;50.096;20.082;2023-03-19T08:45:47;51.50;;;28.40;;
67640;SDS011;54434;50.096;20.082;2023-03-19T08:48:24;32.00;;;18.00;;
67640;SDS011;54434;50.096;20.082;2023-03-19T08:51:03;30.90;;;17.80;;
67640;SDS011;54434;50.096;20.082;2023-03-19T08:53:39;24.00;;;13.30;;
67640;SDS011;54434;50.096;20.082;2023-03-19T08:56:18;21.80;;;12.10;;
67640;SDS011;54434;50.096;20.082;2023-03-19T08:58:56;19.90;;;11.00;;
67640;SDS011;54434;50.096;20.082;2023-03-19T09:01:33;20.50;;;10.90;;
67640;SDS011;54434;50.096;20.082;2023-03-19T09:04:10;21.30;;;12.70;;
67640;SDS011;54434;50.096;20.082;2023-03-19T09:06:47;22.70;;;13.00;;
67640;SDS011;54434;50.096;20.082;2023-03-19T09:09:25;23.40;;;11.10;;
67640;SDS011;54434;50.096;20.082;2023-03-19T09:12:03;21.50;;;11.10;;
67640;SDS011;54434;50.096;20.082;2023-03-19T09:14:40;20.90;;;10.80;;
67640;SDS011;54434;50.096;20.082;2023-03-19T09:17:17;20.10;;;10.60;;
67640;SDS011;54434;50.096;20.082;2023-03-19T09:19:54;16.90;;;10.80;;
67640;SDS011;54434;50.096;20.082;2023-03-19T09:22:31;16.20;;;9.10;;
67640;SDS011;54434;50.096;20.082;2023-03-19T09:25:10;17.80;;;10.50;;
67640;SDS011;54434;50.096;20.082;2023-03-19T09:27:46;24.00;;;12.40;;
67640;SDS011;54434;50.096;20.082;2023-03-19T09:30:23;23.60;;;13.40;;
67640;SDS011;54434;50.096;20.082;2023-03-19T09:32:59;17.80;;;9.20;;
67640;SDS011;54434;50.096;20.082;2023-03-19T09:35:37;16.30;;;8.10;;
67640;SDS011;54434;50.096;20.082;2023-03-19T09:38:14;14.80;;;8.20;;
67640;SDS011;54434;50.096;20.082;2023-03-19T09:41:05;15.00;;;8.20;;
67640;SDS011;54434;50.096;20.082;2023-03-19T09:44:02;17.10;;;8.80;;
67640;SDS011;54434;50.096;20.082;2023-03-19T09:46:47;16.20;;;9.20;;
67640;SDS011;54434;50.096;20.082;2023-03-19T09:49:31;15.30;;;8.10;;
67640;SDS011;54434;50.096;20.082;2023-03-19T09:52:23;13.80;;;8.80;;
67640;SDS011;54434;50.096;20.082;2023-03-19T09:55:23;15.50;;;8.40;;
67640;SDS011;54434;50.096;20.082;2023-03-19T09:58:14;12.90;;;7.80;;
67640;SDS011;54434;50.096;20.082;2023-03-19T10:00:53;13.70;;;7.00;;
67640;SDS011;54434;50.096;20.082;2023-03-19T10:03:49;11.80;;;6.60;;
67640;SDS011;54434;50.096;20.082;2023-03-19T10:06:40;11.90;;;7.00;;
67640;SDS011;54434;50.096;20.082;2023-03-19T10:09:32;12.10;;;7.30;;
67640;SDS011;54434;50.096;20.082;2023-03-19T10:12:38;11.80;;;6.60;;
67640;SDS011;54434;50.096;20.082;2023-03-19T10:15:28;13.70;;;7.10;;
67640;SDS011;54434;50.096;20.082;2023-03-19T10:18:10;10.90;;;6.10;;
67640;SDS011;54434;50.096;20.082;2023-03-19T10:20:54;12.90;;;6.60;;
67640;SDS011;54434;50.096;20.082;2023-03-19T10:23:43;12.20;;;5.90;;
67640;SDS011;54434;50.096;20.082;2023-03-19T10:29:09;13.10;;;6.60;;
67640;SDS011;54434;50.096;20.082;2023-03-19T10:31:55;9.00;;;5.50;;
67640;SDS011;54434;50.096;20.082;2023-03-19T10:34:44;12.00;;;6.10;;
67640;SDS011;54434;50.096;20.082;2023-03-19T10:37:24;8.80;;;4.70;;
67640;SDS011;54434;50.096;20.082;2023-03-19T10:40:02;9.70;;;5.10;;
67640;SDS011;54434;50.096;20.082;2023-03-19T10:43:05;11.70;;;6.80;;
67640;SDS011;54434;50.096;20.082;2023-03-19T10:45:47;15.50;;;8.50;;
67640;SDS011;54434;50.096;20.082;2023-03-19T10:48:25;10.40;;;5.40;;
67640;SDS011;54434;50.096;20.082;2023-03-19T10:51:05;11.40;;;5.20;;
67640;SDS011;54434;50.096;20.082;2023-03-19T10:53:41;8.70;;;5.30;;
67640;SDS011;54434;50.096;20.082;2023-03-19T10:56:23;9.50;;;5.50;;
67640;SDS011;54434;50.096;20.082;2023-03-19T10:59:04;10.20;;;5.90;;
67640;SDS011;54434;50.096;20.082;2023-03-19T11:01:58;9.40;;;5.50;;
67640;SDS011;54434;50.096;20.082;2023-03-19T11:04:48;10.80;;;5.70;;
67640;SDS011;54434;50.096;20.082;2023-03-19T11:07:40;10.00;;;5.10;;
67640;SDS011;54434;50.096;20.082;2023-03-19T11:10:17;11.00;;;6.40;;
67640;SDS011;54434;50.096;20.082;2023-03-19T11:12:58;12.40;;;6.70;;
67640;SDS011;54434;50.096;20.082;2023-03-19T11:15:39;11.30;;;6.90;;
67640;SDS011;54434;50.096;20.082;2023-03-19T11:18:22;13.20;;;6.70;;
67640;SDS011;54434;50.096;20.082;2023-03-19T11:21:07;13.00;;;6.80;;
67640;SDS011;54434;50.096;20.082;2023-03-19T11:24:02;10.40;;;6.30;;
67640;SDS011;54434;50.096;20.082;2023-03-19T11:26:54;12.60;;;6.00;;
67640;SDS011;54434;50.096;20.082;2023-03-19T11:29:33;13.50;;;6.20;;
67640;SDS011;54434;50.096;20.082;2023-03-19T11:32:29;11.20;;;6.00;;
67640;SDS011;54434;50.096;20.082;2023-03-19T11:35:32;9.60;;;5.70;;
67640;SDS011;54434;50.096;20.082;2023-03-19T11:38:18;11.90;;;6.30;;
67640;SDS011;54434;50.096;20.082;2023-03-19T11:41:05;10.10;;;5.50;;
67640;SDS011;54434;50.096;20.082;2023-03-19T11:43:59;11.80;;;5.80;;
67640;SDS011;54434;50.096;20.082;2023-03-19T11:46:51;11.70;;;5.90;;
67640;SDS011;54434;50.096;20.082;2023-03-19T11:49:56;11.80;;;5.80;;
67640;SDS011;54434;50.096;20.082;2023-03-19T11:53:04;11.30;;;6.10;;
67640;SDS011;54434;50.096;20.082;2023-03-19T11:55:57;9.60;;;5.90;;
67640;SDS011;54434;50.096;20.082;2023-03-19T11:58:56;10.20;;;5.90;;
67640;SDS011;54434;50.096;20.082;2023-03-19T12:02:12;11.10;;;5.80;;
67640;SDS011;54434;50.096;20.082;2023-03-19T12:05:19;12.30;;;6.00;;
67640;SDS011;54434;50.096;20.082;2023-03-19T12:08:14;11.50;;;5.60;;
67640;SDS011;54434;50.096;20.082;2023-03-19T12:11:17;10.90;;;5.80;;
67640;SDS011;54434;50.096;20.082;2023-03-19T12:14:11;11.10;;;6.40;;
67640;SDS011;54434;50.096;20.082;2023-03-19T12:17:21;10.70;;;5.60;;
67640;SDS011;54434;50.096;20.082;2023-03-19T12:20:22;13.60;;;6.10;;
67640;SDS011;54434;50.096;20.082;2023-03-19T12:23:28;10.60;;;5.80;;
67640;SDS011;54434;50.096;20.082;2023-03-19T12:26:18;10.50;;;5.40;;
67640;SDS011;54434;50.096;20.082;2023-03-19T12:29:09;11.00;;;5.70;;
67640;SDS011;54434;50.096;20.082;2023-03-19T12:32:24;10.40;;;5.60;;
67640;SDS011;54434;50.096;20.082;2023-03-19T12:35:12;8.90;;;5.30;;
67640;SDS011;54434;50.096;20.082;2023-03-19T12:37:57;9.30;;;5.20;;
67640;SDS011;54434;50.096;20.082;2023-03-19T12:40:42;11.00;;;5.60;;
67640;SDS011;54434;50.096;20.082;2023-03-19T12:43:26;8.90;;;5.30;;
67640;SDS011;54434;50.096;20.082;2023-03-19T12:46:12;9.20;;;5.50;;
67640;SDS011;54434;50.096;20.082;2023-03-19T12:48:59;10.80;;;5.60;;
67640;SDS011;54434;50.096;20.082;2023-03-19T12:51:52;8.50;;;4.80;;
67640;SDS011;54434;50.096;20.082;2023-03-19T12:54:37;8.00;;;4.60;;
67640;SDS011;54434;50.096;20.082;2023-03-19T12:57:20;9.80;;;5.60;;
67640;SDS011;54434;50.096;20.082;2023-03-19T13:00:09;9.80;;;4.80;;
67640;SDS011;54434;50.096;20.082;2023-03-19T13:02:54;8.60;;;4.70;;
67640;SDS011;54434;50.096;20.082;2023-03-19T13:05:42;9.30;;;5.00;;
67640;SDS011;54434;50.096;20.082;2023-03-19T13:08:28;9.80;;;4.80;;
67640;SDS011;54434;50.096;20.082;2023-03-19T13:11:28;8.90;;;4.90;;
67640;SDS011;54434;50.096;20.082;2023-03-19T13:14:16;9.80;;;5.10;;
67640;SDS011;54434;50.096;20.082;2023-03-19T13:17:05;11.30;;;5.00;;
67640;SDS011;54434;50.096;20.082;2023-03-19T13:19:50;8.70;;;4.60;;
67640;SDS011;54434;50.096;20.082;2023-03-19T13:22:33;9.40;;;4.80;;
67640;SDS011;54434;50.096;20.082;2023-03-19T13:25:15;9.30;;;4.70;;
67640;SDS011;54434;50.096;20.082;2023-03-19T13:27:56;9.60;;;4.90;;
67640;SDS011;54434;50.096;20.082;2023-03-19T13:30:33;7.80;;;4.40;;
67640;SDS011;54434;50.096;20.082;2023-03-19T13:33:24;8.00;;;5.00;;
67640;SDS011;54434;50.096;20.082;2023-03-19T13:36:09;10.30;;;5.20;;
67640;SDS011;54434;50.096;20.082;2023-03-19T13:38:50;8.70;;;4.90;;
67640;SDS011;54434;50.096;20.082;2023-03-19T13:42:05;8.90;;;4.40;;
67640;SDS011;54434;50.096;20.082;2023-03-19T13:45:33;9.80;;;4.90;;
67640;SDS011;54434;50.096;20.082;2023-03-19T13:48:37;7.70;;;4.60;;
67640;SDS011;54434;50.096;20.082;2023-03-19T13:51:29;8.30;;;4.80;;
67640;SDS011;54434;50.096;20.082;2023-03-19T13:54:17;10.70;;;4.90;;
67640;SDS011;54434;50.096;20.082;2023-03-19T13:57:39;9.20;;;4.80;;
67640;SDS011;54434;50.096;20.082;2023-03-19T14:01:00;8.60;;;4.80;;
67640;SDS011;54434;50.096;20.082;2023-03-19T14:03:40;10.30;;;5.00;;
67640;SDS011;54434;50.096;20.082;2023-03-19T14:06:37;9.00;;;5.40;;
67640;SDS011;54434;50.096;20.082;2023-03-19T14:09:41;8.40;;;4.80;;
67640;SDS011;54434;50.096;20.082;2023-03-19T14:12:32;8.30;;;4.50;;
67640;SDS011;54434;50.096;20.082;2023-03-19T14:15:21;9.50;;;4.70;;
67640;SDS011;54434;50.096;20.082;2023-03-19T14:18:03;12.70;;;4.90;;
67640;SDS011;54434;50.096;20.082;2023-03-19T14:20:56;11.20;;;5.00;;
67640;SDS011;54434;50.096;20.082;2023-03-19T14:23:49;7.30;;;4.70;;
67640;SDS011;54434;50.096;20.082;2023-03-19T14:26:30;9.00;;;4.70;;
67640;SDS011;54434;50.096;20.082;2023-03-19T14:29:06;9.40;;;4.80;;
67640;SDS011;54434;50.096;20.082;2023-03-19T14:31:50;8.50;;;4.60;;
67640;SDS011;54434;50.096;20.082;2023-03-19T14:34:32;9.70;;;4.70;;
67640;SDS011;54434;50.096;20.082;2023-03-19T14:37:20;9.60;;;4.80;;
67640;SDS011;54434;50.096;20.082;2023-03-19T14:40:09;9.30;;;5.00;;
67640;SDS011;54434;50.096;20.082;2023-03-19T14:42:59;9.30;;;5.30;;
67640;SDS011;54434;50.096;20.082;2023-03-19T14:45:56;10.60;;;4.90;;
67640;SDS011;54434;50.096;20.082;2023-03-19T14:49:19;10.10;;;5.10;;
67640;SDS011;54434;50.096;20.082;2023-03-19T14:52:15;9.50;;;5.00;;
67640;SDS011;54434;50.096;20.082;2023-03-19T14:54:57;9.10;;;4.70;;
67640;SDS011;54434;50.096;20.082;2023-03-19T14:57:35;9.60;;;5.20;;
67640;SDS011;54434;50.096;20.082;2023-03-19T15:00:18;8.20;;;4.60;;
67640;SDS011;54434;50.096;20.082;2023-03-19T15:02:56;8.30;;;4.70;;
67640;SDS011;54434;50.096;20.082;2023-03-19T15:05:34;10.00;;;4.60;;
67640;SDS011;54434;50.096;20.082;2023-03-19T15:08:13;9.10;;;4.70;;
67640;SDS011;54434;50.096;20.082;2023-03-19T15:11:05;7.80;;;4.50;;
67640;SDS011;54434;50.096;20.082;2023-03-19T15:14:20;10.40;;;5.30;;
67640;SDS011;54434;50.096;20.082;2023-03-19T15:17:16;12.10;;;5.10;;
67640;SDS011;54434;50.096;20.082;2023-03-19T15:19:59;8.80;;;5.20;;
67640;SDS011;54434;50.096;20.082;2023-03-19T15:22:37;9.80;;;4.90;;
67640;SDS011;54434;50.096;20.082;2023-03-19T15:25:15;10.10;;;5.50;;
67640;SDS011;54434;50.096;20.082;2023-03-19T15:28:08;9.00;;;5.10;;
67640;SDS011;54434;50.096;20.082;2023-03-19T15:30:55;10.30;;;6.00;;
67640;SDS011;54434;50.096;20.082;2023-03-19T15:33:53;9.20;;;5.30;;
67640;SDS011;54434;50.096;20.082;2023-03-19T15:36:31;9.20;;;5.10;;
67640;SDS011;54434;50.096;20.082;2023-03-19T15:39:12;9.70;;;5.50;;
67640;SDS011;54434;50.096;20.082;2023-03-19T15:41:53;10.30;;;5.40;;
67640;SDS011;54434;50.096;20.082;2023-03-19T15:44:38;9.90;;;5.40;;
67640;SDS011;54434;50.096;20.082;2023-03-19T15:47:23;11.20;;;4.90;;
67640;SDS011;54434;50.096;20.082;2023-03-19T15:50:07;9.90;;;5.60;;
67640;SDS011;54434;50.096;20.082;2023-03-19T15:52:51;10.20;;;5.20;;
67640;SDS011;54434;50.096;20.082;2023-03-19T15:55:33;10.40;;;5.40;;
67640;SDS011;54434;50.096;20.082;2023-03-19T15:58:14;10.80;;;5.20;;
67640;SDS011;54434;50.096;20.082;2023-03-19T16:00:55;10.00;;;5.20;;